Ivy, Virginia
Current Conditions -  °F | °C
As of 9:53 PM on Friday 28 Nov 2014 (Local Time) from KCHO Reporting Station
Few Clouds Few Clouds  
Wind Chill: 30°   Ceiling: Unl
Heat Index: 30°   Visibility: 10mi
Dew Point: 20°   Wind: 3mph
Humidity: 66%   Direction: 170°S
Pressure: 30.26"   Gusts: NA
Location:  38.06°N, 78.6°W
Report Text: KCHO 290253Z 17003KT 10SM FEW120 M01/M07 A3026 RMK AO2 SLP250 T10111067 58001
Loading
Personal Weather Stations






























Interactive Weather Map New forecast layout! Learn more

10-Day Weather Forecast

Advertisements
Track Severe Weather on mobile